Muir Army Air Field (Fort Indiantown Gap) Airport Fort Indiantown Gap(Annville) US
ICAO: KMUI
IATA: MUI
Category: Medium
Scheduled Services: No

Elevation: 488 ft
TransAlt. 18000 ft.

Airport Communications:
HARRISBURG APP/DEP:118.25
CTAF:126.2
GND:121.625
FLT FLW:40.9
ARNG OPS:49.95
TWR:126.2

KMUI Zoom In..

Runways:

(A) RW 07 length 3978 ft width 98 ft
---- / hdg 70

(B) RW 25 length 3978 ft width 98 ft
---- / hdg 250

Location; KMUI
Day. 25 / Time. 11.56 Zulu
* Altimeter: 29.85
* Temperature: 12° c. 53.6°f.
* Wind from: 050° Speed 04 kn.
Dewpoint: 12° c.
Visibility: 4 Statute Miles.
Clouds: Overcast 700 ft.
Clouds: Broken 00 ft.
Clouds: Overcast 00 ft.
Conditions: Light Rain.Conditions: Mist.

KMUI 251156Z 05004KT 4SM -RA BR OVC007 12/12 A2985 RMK AO2A RAE1059RAB11 BKN V OVC SLP111 P0015 60037 70067 T01190116 10119 20107 57013 $


Wind From 050°
Speed 04 kn.

  YouTube Music Video
 
jpsmedia.com for Web Design  worldairports.se 2018   terms of use